Time;durP1;ratioP1;P1;durP2;ratioP2;P2;SDS_P1;SDS_P2;PMS_P1;PMS_P2;Temp;Humidity;BMP_temperature;BMP_pressure;BME280_temperature;BME280_humidity;BME280_pressure;Samples;Min_cycle;Max_cycle;Signal;HPM_P1;HPM_P2
2023/08/09 00:01:37;;;;;;;0.20;0.20;;;16.10;99.90;;;;;;5061243;28;20037;-76
2023/08/09 00:04:04;;;;;;;0.17;0.17;;;15.20;99.90;;;;;;5061185;28;20047;-75
2023/08/09 00:06:33;;;;;;;3.20;2.83;;;15.10;99.90;;;;;;5063191;28;20024;-78
2023/08/09 00:08:59;;;;;;;0.10;0.10;;;15.20;99.90;;;;;;5063008;28;20023;-76
2023/08/09 00:11:28;;;;;;;0.10;0.10;;;15.20;99.90;;;;;;5061498;28;20012;-75
2023/08/09 00:13:54;;;;;;;0.10;0.10;;;14.70;99.90;;;;;;5061132;28;20677;-76
2023/08/09 00:16:20;;;;;;;0.10;0.10;;;14.10;99.90;;;;;;5061450;28;20400;-75
2023/08/09 00:18:46;;;;;;;0.10;0.10;;;14.20;99.90;;;;;;5061338;28;20107;-77
2023/08/09 00:21:12;;;;;;;0.10;0.10;;;14.50;99.90;;;;;;5060645;28;20063;-78
2023/08/09 00:23:38;;;;;;;0.10;0.10;;;15.10;99.90;;;;;;5045598;28;20448;-79
2023/08/09 00:26:04;;;;;;;0.10;0.10;;;16.00;99.90;;;;;;5061305;28;20262;-81
2023/08/09 00:28:30;;;;;;;0.15;0.15;;;15.70;99.90;;;;;;5060774;28;20218;-76
2023/08/09 00:30:57;;;;;;;0.10;0.10;;;;;;;;;;5061538;28;20039;-77
2023/08/09 00:33:23;;;;;;;0.10;0.10;;;16.20;99.90;;;;;;5061970;28;20032;-75
2023/08/09 00:35:49;;;;;;;0.10;0.10;;;16.00;99.90;;;;;;5061387;28;20205;-79
2023/08/09 00:38:17;;;;;;;0.10;0.10;;;16.00;99.90;;;;;;5061153;28;20694;-76
2023/08/09 00:40:43;;;;;;;0.10;0.10;;;16.20;99.90;;;;;;5061083;28;20066;-75
2023/08/09 00:43:09;;;;;;;0.32;0.32;;;16.00;99.90;;;;;;5060568;28;20074;-76
2023/08/09 00:45:36;;;;;;;0.10;0.10;;;14.90;99.90;;;;;;5060652;28;20170;-77
2023/08/09 00:48:02;;;;;;;0.10;0.10;;;14.90;99.90;;;;;;5060651;28;20399;-77
2023/08/09 00:50:28;;;;;;;0.10;0.10;;;14.50;99.90;;;;;;5060968;28;20013;-77
2023/08/09 00:52:55;;;;;;;0.10;0.10;;;15.20;99.90;;;;;;5060648;28;20020;-77
2023/08/09 00:55:21;;;;;;;0.10;0.10;;;15.50;99.90;;;;;;5061154;28;20569;-80
2023/08/09 00:57:49;;;;;;;0.10;0.10;;;15.70;99.90;;;;;;5061703;28;20023;-76
2023/08/09 01:00:15;;;;;;;0.10;0.10;;;16.40;99.90;;;;;;5061494;28;20651;-76
2023/08/09 01:02:41;;;;;;;0.10;0.10;;;15.40;99.90;;;;;;5060059;28;20040;-76
2023/08/09 01:05:07;;;;;;;0.10;0.10;;;16.40;99.90;;;;;;5059776;28;20474;-78
2023/08/09 01:07:49;;;;;;;0.10;0.10;;;15.60;99.90;;;;;;5060732;28;20020;-77
2023/08/09 01:10:22;;;;;;;0.10;0.10;;;17.40;99.90;;;;;;5043055;28;20028;-76
2023/08/09 01:12:51;;;;;;;;;;;15.90;99.90;;;;;;5043301;28;20565;-76
2023/08/09 01:15:20;;;;;;;0.10;0.10;;;15.80;99.90;;;;;;5060831;28;20149;-76
2023/08/09 01:17:51;;;;;;;0.10;0.10;;;15.90;99.90;;;;;;5061549;28;20035;-75
2023/08/09 01:20:20;;;;;;;0.10;0.10;;;16.70;99.90;;;;;;5042743;28;20111;-76
2023/08/09 01:23:14;;;;;;;0.10;0.10;;;17.00;99.90;;;;;;5060768;28;20321;-76
2023/08/09 01:25:40;;;;;;;0.10;0.10;;;17.40;99.90;;;;;;5059897;28;20094;-76
2023/08/09 01:28:06;;;;;;;1.00;0.93;;;17.50;99.90;;;;;;5060363;28;20120;-76
2023/08/09 01:30:32;;;;;;;0.10;0.10;;;17.70;99.90;;;;;;5060889;28;20078;-78
2023/08/09 01:32:59;;;;;;;0.10;0.10;;;18.10;99.90;;;;;;5060739;28;20670;-78
2023/08/09 01:35:30;;;;;;;0.10;0.10;;;18.00;99.90;;;;;;5060947;28;20029;-76
2023/08/09 01:38:04;;;;;;;0.10;0.10;;;18.10;99.90;;;;;;5059822;28;20023;-76
2023/08/09 01:40:31;;;;;;;0.10;0.10;;;15.50;99.90;;;;;;5059847;28;20060;-75
2023/08/09 01:42:58;;;;;;;0.10;0.10;;;17.90;99.90;;;;;;5059447;28;20052;-76
2023/08/09 01:45:25;;;;;;;1.20;1.20;;;17.80;99.90;;;;;;5060289;28;20021;-76
2023/08/09 01:47:52;;;;;;;0.10;0.10;;;18.40;99.90;;;;;;5060022;28;20024;-77
2023/08/09 01:50:26;;;;;;;0.10;0.10;;;17.40;99.90;;;;;;5040925;28;20498;-77
2023/08/09 01:52:56;;;;;;;0.10;0.10;;;17.80;99.90;;;;;;5041125;28;20107;-76
2023/08/09 01:55:25;;;;;;;0.10;0.10;;;17.80;99.90;;;;;;5058949;28;20025;-75
2023/08/09 01:57:52;;;;;;;0.10;0.10;;;15.00;99.90;;;;;;5059009;28;20025;-76
2023/08/09 02:00:19;;;;;;;0.10;0.10;;;17.50;99.90;;;;;;5041641;28;20166;-81
2023/08/09 02:02:50;;;;;;;0.20;0.20;;;16.30;99.90;;;;;;5040894;28;20059;-76
2023/08/09 02:05:16;;;;;;;0.10;0.10;;;16.30;99.90;;;;;;5059175;28;20652;-77
2023/08/09 02:07:42;;;;;;;0.10;0.10;;;16.70;99.90;;;;;;5059002;28;20025;-76
2023/08/09 02:10:10;;;;;;;0.10;0.10;;;16.60;99.90;;;;;;5042017;28;20039;-76
2023/08/09 02:12:39;;;;;;;0.10;0.10;;;16.10;99.90;;;;;;5059991;28;20024;-76
2023/08/09 02:15:06;;;;;;;0.30;0.30;;;15.90;99.90;;;;;;5059028;28;20024;-76
2023/08/09 02:17:34;;;;;;;0.10;0.10;;;15.90;99.90;;;;;;5042144;28;20037;-77
2023/08/09 02:20:01;;;;;;;0.10;0.10;;;16.00;99.90;;;;;;5060252;28;20314;-76
2023/08/09 02:22:36;;;;;;;0.10;0.10;;;14.60;99.90;;;;;;5040415;28;20687;-81
2023/08/09 02:25:02;;;;;;;0.10;0.10;;;14.10;99.90;;;;;;5042101;28;20053;-76
2023/08/09 02:27:28;;;;;;;0.10;0.10;;;14.20;99.90;;;;;;5060911;28;20086;-77
2023/08/09 02:29:55;;;;;;;0.10;0.10;;;14.40;99.90;;;;;;5060729;28;20016;-77
2023/08/09 02:32:21;;;;;;;0.10;0.10;;;13.30;99.90;;;;;;5061057;28;20063;-79
2023/08/09 02:34:47;;;;;;;0.10;0.10;;;12.60;99.90;;;;;;5061973;28;20081;-82
2023/08/09 02:37:13;;;;;;;0.10;0.10;;;;;;;;;;5062224;28;20058;-79
2023/08/09 02:39:39;;;;;;;0.10;0.10;;;13.00;99.90;;;;;;5062417;28;20029;-77
2023/08/09 02:42:06;;;;;;;0.10;0.10;;;14.30;99.90;;;;;;5061074;28;20688;-78
2023/08/09 02:44:32;;;;;;;0.10;0.10;;;14.30;99.90;;;;;;5042910;28;20112;-77
2023/08/09 02:46:59;;;;;;;0.10;0.10;;;14.80;99.90;;;;;;5061190;28;20055;-84
2023/08/09 02:49:25;;;;;;;0.10;0.10;;;15.60;99.90;;;;;;5060644;28;20250;-75
2023/08/09 02:51:51;;;;;;;0.10;0.10;;;17.00;99.90;;;;;;5060872;28;20578;-79
2023/08/09 02:54:18;;;;;;;0.10;0.10;;;14.60;99.90;;;;;;5061668;28;20052;-78
2023/08/09 02:56:45;;;;;;;0.17;0.17;;;15.70;99.90;;;;;;5061255;28;20426;-75
2023/08/09 02:59:11;;;;;;;0.10;0.10;;;15.90;99.90;;;;;;5059879;28;20517;-79
2023/08/09 03:01:37;;;;;;;0.10;0.10;;;15.70;99.90;;;;;;5059901;28;20312;-76
2023/08/09 03:04:03;;;;;;;0.10;0.10;;;16.60;99.90;;;;;;5061370;28;20017;-78
2023/08/09 03:06:29;;;;;;;0.10;0.10;;;15.90;99.90;;;;;;5042772;28;20068;-83
2023/08/09 03:08:55;;;;;;;0.10;0.10;;;15.50;99.90;;;;;;5062153;28;20055;-83
2023/08/09 03:11:24;;;;;;;0.10;0.10;;;14.70;99.90;;;;;;5042631;28;20017;-80
2023/08/09 03:13:51;;;;;;;0.10;0.10;;;15.70;99.90;;;;;;5060708;28;20036;-77
2023/08/09 03:16:18;;;;;;;0.10;0.10;;;15.80;99.90;;;;;;5061364;28;20013;-77
2023/08/09 03:18:44;;;;;;;0.10;0.10;;;16.70;99.90;;;;;;5061016;28;20021;-77
2023/08/09 03:21:11;;;;;;;0.10;0.10;;;;;;;;;;5061644;28;20468;-75
2023/08/09 03:23:37;;;;;;;0.10;0.10;;;16.80;99.90;;;;;;5058957;28;20036;-82
2023/08/09 03:26:04;;;;;;;0.10;0.10;;;16.90;99.90;;;;;;5060874;28;20035;-78
2023/08/09 03:28:30;;;;;;;0.10;0.10;;;;;;;;;;5061591;28;20044;-75
2023/08/09 03:30:56;;;;;;;0.82;0.82;;;17.00;99.90;;;;;;5044029;28;20616;-78
2023/08/09 03:33:23;;;;;;;0.75;0.75;;;17.10;99.90;;;;;;5063914;28;20490;-76
2023/08/09 03:35:49;;;;;;;0.20;0.20;;;17.10;99.90;;;;;;5044385;28;20070;-76
2023/08/09 03:38:15;;;;;;;0.30;0.30;;;17.00;99.90;;;;;;5044012;28;20127;-75
2023/08/09 03:40:41;;;;;;;0.10;0.10;;;17.20;99.90;;;;;;5062467;28;20027;-75
2023/08/09 03:43:07;;;;;;;0.10;0.10;;;17.20;99.90;;;;;;5061368;28;20582;-79
2023/08/09 03:45:33;;;;;;;0.10;0.10;;;17.20;99.90;;;;;;5061777;28;20017;-78
2023/08/09 03:47:59;;;;;;;0.55;0.55;;;17.30;99.90;;;;;;5061440;28;20046;-74
2023/08/09 03:50:29;;;;;;;0.10;0.10;;;17.30;99.90;;;;;;5061255;28;20104;-75
2023/08/09 03:52:55;;;;;;;0.73;0.73;;;20.50;99.90;;;;;;5061471;28;20029;-75
2023/08/09 03:55:21;;;;;;;0.15;0.15;;;17.20;99.90;;;;;;5061883;28;20526;-76
2023/08/09 03:57:47;;;;;;;0.10;0.10;;;18.00;99.90;;;;;;5043026;28;20013;-75
2023/08/09 04:00:17;;;;;;;2.42;1.70;;;17.40;99.90;;;;;;5061554;28;20056;-77
2023/08/09 04:02:53;;;;;;;0.10;0.10;;;17.40;99.90;;;;;;5061527;28;20028;-75
2023/08/09 04:05:19;;;;;;;0.10;0.10;;;17.30;99.90;;;;;;5061782;28;20115;-75
2023/08/09 04:07:46;;;;;;;0.10;0.10;;;17.20;99.90;;;;;;5061414;28;20024;-77
2023/08/09 04:10:12;;;;;;;0.10;0.10;;;16.80;99.90;;;;;;5043414;28;20027;-75
2023/08/09 04:12:38;;;;;;;0.10;0.10;;;17.00;99.90;;;;;;5061410;28;20040;-77
2023/08/09 04:15:06;;;;;;;0.10;0.10;;;16.70;99.90;;;;;;5061323;28;20672;-75
2023/08/09 04:17:32;;;;;;;0.10;0.10;;;16.70;99.90;;;;;;5043585;28;20544;-78
2023/08/09 04:19:59;;;;;;;0.10;0.10;;;16.80;99.90;;;;;;5043789;28;20048;-79
2023/08/09 04:22:25;;;;;;;0.10;0.10;;;17.20;99.90;;;;;;5060914;28;20040;-78
2023/08/09 04:24:52;;;;;;;0.10;0.10;;;17.60;99.90;;;;;;5060417;28;20059;-75
2023/08/09 04:27:18;;;;;;;0.10;0.10;;;17.70;99.90;;;;;;5060365;28;20190;-75
2023/08/09 04:29:45;;;;;;;0.10;0.10;;;16.40;99.90;;;;;;5042637;28;20317;-78
2023/08/09 04:32:12;;;;;;;0.55;0.55;;;17.50;99.90;;;;;;5063185;28;20048;-77
2023/08/09 04:34:39;;;;;;;0.10;0.10;;;17.40;99.90;;;;;;5042840;28;20119;-78
2023/08/09 04:37:05;;;;;;;0.10;0.10;;;17.30;99.90;;;;;;5061261;28;20417;-75
2023/08/09 04:39:32;;;;;;;0.10;0.10;;;17.50;99.90;;;;;;5043056;28;20027;-77
2023/08/09 04:41:58;;;;;;;0.10;0.10;;;17.50;99.90;;;;;;5060484;28;20024;-77
2023/08/09 04:44:25;;;;;;;0.10;0.10;;;17.20;99.90;;;;;;5060301;28;20439;-75
2023/08/09 04:46:51;;;;;;;2.03;1.95;;;17.10;99.90;;;;;;5060436;28;20663;-76
2023/08/09 04:49:17;;;;;;;0.10;0.10;;;17.10;99.90;;;;;;5060001;28;20316;-75
2023/08/09 04:51:43;;;;;;;0.10;0.10;;;16.80;99.90;;;;;;5059843;28;20023;-76
2023/08/09 04:54:11;;;;;;;0.10;0.10;;;16.60;99.90;;;;;;5059482;28;20033;-76
2023/08/09 04:56:37;;;;;;;0.22;0.22;;;16.80;99.90;;;;;;5060684;28;20170;-75
2023/08/09 04:59:03;;;;;;;0.10;0.10;;;17.40;99.90;;;;;;5041841;28;20024;-75
2023/08/09 05:01:29;;;;;;;0.10;0.10;;;17.00;99.90;;;;;;5061256;28;20418;-77
2023/08/09 05:03:55;;;;;;;0.10;0.10;;;17.20;99.90;;;;;;5059696;28;20028;-76
2023/08/09 05:06:22;;;;;;;0.10;0.10;;;17.40;99.90;;;;;;5059891;28;20617;-75
2023/08/09 05:08:48;;;;;;;0.10;0.10;;;17.50;99.90;;;;;;5060182;28;20020;-76
2023/08/09 05:11:14;;;;;;;0.10;0.10;;;17.60;99.90;;;;;;5059355;28;20021;-75
2023/08/09 05:13:40;;;;;;;0.10;0.10;;;18.70;99.90;;;;;;5040794;28;20039;-75
2023/08/09 05:16:06;;;;;;;0.10;0.10;;;18.10;99.90;;;;;;5044181;28;20090;-77
2023/08/09 05:18:32;;;;;;;0.20;0.20;;;17.90;99.90;;;;;;5062089;28;20016;-81
2023/08/09 05:20:58;;;;;;;0.20;0.20;;;18.40;99.90;;;;;;5061887;28;20024;-75
2023/08/09 05:23:24;;;;;;;0.30;0.30;;;17.90;99.90;;;;;;5060689;28;20359;-75
2023/08/09 05:25:50;;;;;;;0.10;0.10;;;18.00;99.90;;;;;;5059496;28;20032;-75
2023/08/09 05:28:16;;;;;;;0.22;0.22;;;18.20;99.90;;;;;;5059941;28;20258;-75
2023/08/09 05:30:42;;;;;;;0.10;0.10;;;18.20;99.90;;;;;;5060851;28;20039;-76
2023/08/09 05:33:08;;;;;;;0.00;0.00;;;18.70;99.90;;;;;;5061108;28;20025;-76
2023/08/09 05:35:38;;;;;;;0.32;0.32;;;18.40;99.90;;;;;;5060954;28;20016;-75
2023/08/09 05:38:04;;;;;;;0.10;0.10;;;18.40;99.90;;;;;;5061532;28;20032;-77
2023/08/09 05:40:30;;;;;;;0.10;0.10;;;18.50;99.90;;;;;;5061580;28;20213;-75
2023/08/09 05:42:56;;;;;;;0.22;0.22;;;18.60;99.90;;;;;;5061085;28;20170;-75
2023/08/09 05:45:23;;;;;;;0.20;0.20;;;18.60;99.90;;;;;;5061405;28;20025;-82
2023/08/09 05:47:49;;;;;;;0.20;0.20;;;18.60;99.90;;;;;;5042918;28;20321;-74
2023/08/09 05:50:15;;;;;;;0.20;0.20;;;18.70;99.90;;;;;;5061547;28;20080;-77
2023/08/09 05:52:41;;;;;;;0.10;0.10;;;18.70;99.90;;;;;;5059959;28;20051;-77
2023/08/09 05:55:08;;;;;;;0.10;0.10;;;18.60;99.90;;;;;;5061021;28;20087;-78
2023/08/09 05:57:36;;;;;;;0.10;0.10;;;18.70;99.90;;;;;;5061478;28;20025;-77
2023/08/09 06:00:04;;;;;;;0.50;0.50;;;19.30;99.90;;;;;;5061607;28;20618;-75
2023/08/09 06:02:33;;;;;;;0.10;0.10;;;19.00;99.90;;;;;;5061077;28;20028;-76
2023/08/09 06:05:00;;;;;;;0.10;0.10;;;18.80;99.90;;;;;;5042131;28;20500;-75
2023/08/09 06:07:27;;;;;;;0.10;0.10;;;18.80;99.90;;;;;;5059770;28;20024;-75
2023/08/09 06:09:53;;;;;;;0.10;0.10;;;18.90;99.90;;;;;;5040874;28;20032;-77
2023/08/09 06:12:19;;;;;;;0.08;0.08;;;19.00;99.90;;;;;;5058675;28;20126;-77
2023/08/09 06:14:45;;;;;;;0.80;0.80;;;19.00;99.90;;;;;;5057999;28;20021;-78
2023/08/09 06:17:11;;;;;;;0.10;0.10;;;19.00;99.90;;;;;;5058131;28;20715;-81
2023/08/09 06:19:37;;;;;;;0.10;0.10;;;18.80;99.90;;;;;;5040331;28;20111;-81
2023/08/09 06:22:03;;;;;;;0.10;0.10;;;18.80;99.90;;;;;;5059037;28;20501;-78
2023/08/09 06:24:29;;;;;;;0.90;0.82;;;18.80;99.90;;;;;;5059530;28;20024;-77
2023/08/09 06:26:55;;;;;;;2.25;2.05;;;19.30;99.90;;;;;;5058277;28;20550;-78
2023/08/09 06:29:21;;;;;;;0.10;0.10;;;;;;;;;;5059016;28;20025;-77
2023/08/09 06:31:48;;;;;;;0.15;0.15;;;18.70;99.90;;;;;;5059201;28;20048;-76
2023/08/09 06:34:14;;;;;;;0.10;0.10;;;18.90;99.90;;;;;;5059164;28;20016;-77
2023/08/09 06:36:40;;;;;;;0.10;0.10;;;18.60;99.90;;;;;;5059075;28;20198;-77
2023/08/09 06:39:06;;;;;;;0.10;0.10;;;18.70;99.90;;;;;;5058891;28;20078;-77
2023/08/09 06:41:32;;;;;;;2.90;2.63;;;17.60;99.90;;;;;;5040250;28;20070;-77
2023/08/09 06:43:58;;;;;;;0.10;0.10;;;17.60;99.90;;;;;;5040601;28;20016;-77
2023/08/09 06:46:24;;;;;;;0.10;0.10;;;17.90;99.90;;;;;;5057140;28;20078;-75
2023/08/09 06:48:51;;;;;;;0.13;0.13;;;18.10;99.90;;;;;;5039331;28;20028;-78
2023/08/09 06:51:18;;;;;;;0.10;0.10;;;18.30;99.90;;;;;;5059982;28;20041;-79
2023/08/09 06:53:44;;;;;;;0.10;0.10;;;18.50;99.90;;;;;;5060153;28;20047;-77
2023/08/09 06:56:10;;;;;;;31.92;18.00;;;18.70;99.90;;;;;;5057081;28;20028;-78
2023/08/09 06:58:36;;;;;;;0.10;0.10;;;18.90;99.90;;;;;;5061820;28;20204;-79
2023/08/09 07:01:03;;;;;;;0.10;0.10;;;19.20;99.90;;;;;;5062748;28;20036;-84
2023/08/09 07:03:29;;;;;;;0.10;0.10;;;18.90;99.90;;;;;;5082158;28;20034;-75
2023/08/09 07:05:54;;;;;;;0.20;0.20;;;19.00;99.90;;;;;;5082075;28;20095;-93
2023/08/09 07:08:21;;;;;;;0.10;0.10;;;19.10;99.90;;;;;;5082193;28;20046;-76
2023/08/09 07:10:47;;;;;;;0.10;0.10;;;19.00;99.90;;;;;;5083503;28;20092;-76
2023/08/09 07:13:13;;;;;;;0.10;0.10;;;18.50;99.90;;;;;;5064150;28;20036;-80
2023/08/09 07:15:40;;;;;;;0.10;0.10;;;18.40;99.90;;;;;;5082368;28;20069;-77
2023/08/09 07:18:06;;;;;;;1.00;1.00;;;18.80;99.90;;;;;;5082261;28;20077;-85
2023/08/09 07:20:32;;;;;;;0.10;0.10;;;18.70;99.90;;;;;;5081575;28;20034;-82
2023/08/09 07:22:58;;;;;;;0.10;0.10;;;18.50;99.90;;;;;;5081709;28;20040;-92
2023/08/09 07:25:23;;;;;;;0.10;0.10;;;18.30;99.90;;;;;;5082005;28;20020;-87
2023/08/09 07:27:50;;;;;;;0.10;0.10;;;18.70;99.90;;;;;;5081152;28;20024;-80
2023/08/09 07:30:17;;;;;;;0.10;0.10;;;18.40;99.90;;;;;;5081276;28;20019;-76
2023/08/09 07:32:43;;;;;;;0.10;0.10;;;18.50;99.90;;;;;;5081321;28;20485;-77
2023/08/09 07:35:10;;;;;;;0.10;0.10;;;18.50;99.90;;;;;;5066220;28;20020;-78
2023/08/09 07:37:38;;;;;;;0.10;0.10;;;18.90;99.90;;;;;;5064297;28;20519;-76
2023/08/09 07:40:05;;;;;;;0.10;0.10;;;18.40;99.90;;;;;;5082325;28;20095;-75
2023/08/09 07:42:31;;;;;;;0.10;0.10;;;19.40;99.90;;;;;;5081779;28;20021;-75
2023/08/09 07:44:59;;;;;;;0.10;0.10;;;19.20;99.90;;;;;;5082546;28;20178;-77
2023/08/09 07:47:24;;;;;;;0.20;0.20;;;19.00;99.90;;;;;;5081954;28;20008;-78
2023/08/09 07:49:51;;;;;;;0.10;0.10;;;19.30;99.90;;;;;;5081716;28;20039;-82
2023/08/09 07:52:17;;;;;;;0.10;0.10;;;18.60;99.90;;;;;;5063868;28;20024;-89
2023/08/09 07:54:43;;;;;;;1.70;1.55;;;18.80;99.90;;;;;;5081225;28;20073;-82
2023/08/09 07:57:09;;;;;;;0.10;0.10;;;19.00;99.90;;;;;;5081052;28;20016;-76
2023/08/09 07:59:35;;;;;;;0.15;0.15;;;19.00;99.90;;;;;;5082093;28;20048;-76
2023/08/09 08:02:01;;;;;;;0.10;0.10;;;18.90;99.90;;;;;;5048009;28;20052;-76
2023/08/09 08:04:30;;;;;;;0.10;0.10;;;18.70;99.90;;;;;;5042594;28;20541;-82
2023/08/09 08:06:56;;;;;;;0.43;0.43;;;18.90;99.90;;;;;;5061319;28;20070;-77
2023/08/09 08:09:24;;;;;;;0.10;0.10;;;19.20;99.90;;;;;;5061381;28;20028;-76
2023/08/09 08:11:51;;;;;;;0.10;0.10;;;19.10;99.90;;;;;;5059742;28;20015;-75
2023/08/09 08:14:18;;;;;;;0.10;0.10;;;18.90;99.90;;;;;;5061574;28;20047;-79
2023/08/09 08:16:44;;;;;;;0.10;0.10;;;18.70;99.90;;;;;;5060509;28;20024;-82
2023/08/09 08:19:10;;;;;;;0.40;0.40;;;19.10;99.90;;;;;;5060852;28;20020;-90
2023/08/09 08:21:36;;;;;;;0.20;0.20;;;19.20;99.90;;;;;;5060329;28;20029;-75
2023/08/09 08:24:04;;;;;;;0.30;0.30;;;19.40;99.90;;;;;;5042758;28;20029;-87
2023/08/09 08:26:30;;;;;;;0.10;0.10;;;19.40;99.90;;;;;;5060124;28;20025;-78
2023/08/09 08:28:56;;;;;;;0.10;0.10;;;19.40;99.90;;;;;;5060297;28;20036;-80
2023/08/09 08:31:22;;;;;;;0.10;0.10;;;19.60;99.90;;;;;;5059284;28;20013;-85
2023/08/09 08:33:49;;;;;;;0.10;0.10;;;19.60;99.90;;;;;;5060916;28;20166;-88
2023/08/09 08:36:16;;;;;;;0.10;0.10;;;19.60;99.90;;;;;;5060256;28;20016;-79
2023/08/09 08:38:42;;;;;;;0.03;0.03;;;19.60;99.90;;;;;;5042541;28;20097;-88
2023/08/09 08:41:11;;;;;;;0.10;0.10;;;19.80;99.90;;;;;;5060212;28;20027;-80
2023/08/09 08:43:38;;;;;;;0.10;0.10;;;20.10;99.90;;;;;;5060076;28;20016;-88
2023/08/09 08:46:04;;;;;;;0.10;0.10;;;20.20;99.90;;;;;;5060717;28;20013;-78
2023/08/09 08:48:33;;;;;;;0.57;0.57;;;20.00;99.90;;;;;;5043683;28;20021;-76
2023/08/09 08:51:04;;;;;;;0.10;0.10;;;20.20;99.90;;;;;;5061237;28;20020;-77
2023/08/09 08:53:32;;;;;;;0.28;0.28;;;21.10;99.90;;;;;;5060938;28;20020;-77
2023/08/09 08:55:59;;;;;;;0.05;0.05;;;20.90;99.90;;;;;;5042882;28;20017;-79
2023/08/09 08:58:25;;;;;;;0.10;0.10;;;21.20;99.90;;;;;;5060411;28;20142;-82
2023/08/09 09:00:51;;;;;;;0.50;0.50;;;21.20;99.90;;;;;;5061023;28;20703;-78
2023/08/09 09:03:18;;;;;;;0.10;0.10;;;21.70;99.90;;;;;;5061070;28;20028;-76
2023/08/09 09:05:44;;;;;;;0.10;0.10;;;20.80;99.90;;;;;;5060643;28;20012;-80
2023/08/09 09:08:13;;;;;;;0.15;0.15;;;;;;;;;;5061855;28;20029;-78
2023/08/09 09:10:46;;;;;;;0.10;0.10;;;21.40;99.90;;;;;;5060850;28;20643;-82
2023/08/09 09:13:26;;;;;;;0.13;0.13;;;19.30;99.90;;;;;;5060640;28;20033;-81
2023/08/09 09:15:54;;;;;;;0.17;0.17;;;21.60;99.90;;;;;;5059530;28;20104;-82
2023/08/09 09:18:21;;;;;;;0.10;0.10;;;21.60;99.90;;;;;;5059814;28;20654;-76
2023/08/09 09:20:48;;;;;;;0.10;0.10;;;21.70;99.90;;;;;;5059366;28;20514;-78
2023/08/09 09:23:27;;;;;;;0.20;0.20;;;21.40;99.90;;;;;;5058975;28;20093;-77
2023/08/09 09:26:09;;;;;;;0.10;0.10;;;21.50;99.90;;;;;;5042016;28;20021;-79
2023/08/09 09:28:41;;;;;;;0.03;0.03;;;21.50;99.90;;;;;;5060494;28;20020;-77
2023/08/09 09:31:12;;;;;;;0.10;0.10;;;21.20;99.90;;;;;;5059673;28;20744;-75
2023/08/09 09:33:39;;;;;;;0.10;0.10;;;21.20;99.90;;;;;;5041267;28;20037;-75
2023/08/09 09:36:10;;;;;;;0.20;0.20;;;21.40;99.90;;;;;;5058981;28;20166;-75
2023/08/09 09:38:37;;;;;;;0.93;0.30;;;21.40;99.70;;;;;;5059958;28;20445;-76
2023/08/09 09:41:05;;;;;;;0.10;0.10;;;;;;;;;;5059581;28;20017;-80
2023/08/09 09:43:33;;;;;;;0.10;0.10;;;21.50;99.60;;;;;;5060110;28;20032;-75
2023/08/09 09:46:00;;;;;;;0.10;0.10;;;21.40;99.90;;;;;;5059711;28;20013;-76
2023/08/09 09:48:27;;;;;;;0.10;0.10;;;25.00;99.90;;;;;;5041232;28;20031;-89
2023/08/09 09:50:54;;;;;;;0.20;0.20;;;22.00;99.70;;;;;;5064096;28;20033;-76
2023/08/09 09:53:20;;;;;;;0.20;0.20;;;22.10;98.90;;;;;;5059094;28;20028;-76
2023/08/09 09:55:46;;;;;;;0.10;0.10;;;22.30;98.90;;;;;;5041556;28;20043;-76
2023/08/09 09:58:13;;;;;;;0.25;0.25;;;22.40;98.20;;;;;;5058986;28;20028;-77
2023/08/09 10:00:55;;;;;;;0.10;0.10;;;22.50;98.00;;;;;;5059948;28;20066;-76
2023/08/09 10:03:23;;;;;;;0.20;0.20;;;22.50;97.30;;;;;;5041307;28;20028;-88
2023/08/09 10:05:51;;;;;;;0.20;0.20;;;22.00;97.70;;;;;;5060399;28;20567;-80
2023/08/09 10:08:19;;;;;;;0.10;0.10;;;22.50;97.80;;;;;;5041588;28;20236;-76
2023/08/09 10:10:47;;;;;;;0.10;0.10;;;22.50;97.70;;;;;;5059607;28;20425;-77
2023/08/09 10:13:22;;;;;;;0.15;0.15;;;22.60;97.40;;;;;;5040926;28;20027;-76
2023/08/09 10:15:57;;;;;;;0.10;0.10;;;22.70;97.20;;;;;;5040832;28;20092;-82
2023/08/09 10:18:29;;;;;;;0.10;0.10;;;22.90;97.10;;;;;;5041588;28;20111;-77
2023/08/09 10:20:59;;;;;;;0.10;0.10;;;21.90;96.10;;;;;;5058995;28;20017;-76
2023/08/09 10:23:29;;;;;;;0.10;0.10;;;23.40;96.30;;;;;;5058955;28;20039;-76
2023/08/09 10:25:56;;;;;;;0.10;0.10;;;23.50;95.50;;;;;;5058523;28;20058;-76
2023/08/09 10:28:45;;;;;;;0.10;0.10;;;23.60;95.10;;;;;;5058825;28;20063;-80
2023/08/09 10:31:15;;;;;;;0.10;0.10;;;23.70;95.70;;;;;;5058843;28;20029;-77
2023/08/09 10:34:09;;;;;;;0.10;0.10;;;23.90;93.90;;;;;;5059922;28;20017;-76
2023/08/09 10:36:35;;;;;;;0.10;0.10;;;24.00;93.70;;;;;;5062796;28;20059;-76
2023/08/09 10:39:12;;;;;;;0.10;0.10;;;24.20;94.10;;;;;;5046005;28;20032;-77
2023/08/09 10:41:52;;;;;;;0.10;0.10;;;24.40;94.70;;;;;;5063391;28;20036;-79
2023/08/09 10:44:44;;;;;;;0.10;0.10;;;24.50;92.20;;;;;;5063155;28;20498;-76
2023/08/09 10:47:19;;;;;;;0.10;0.10;;;24.40;91.90;;;;;;5064107;28;20028;-77
2023/08/09 10:49:51;;;;;;;0.13;0.13;;;24.40;91.80;;;;;;5044723;28;20088;-78
2023/08/09 10:52:20;;;;;;;0.10;0.10;;;24.60;90.90;;;;;;5049219;28;20044;-79
2023/08/09 10:54:49;;;;;;;0.00;0.00;;;24.90;90.70;;;;;;5066359;28;20186;-79
2023/08/09 10:57:16;;;;;;;0.10;0.10;;;25.00;89.80;;;;;;5063058;28;20462;-78
2023/08/09 10:59:46;;;;;;;0.10;0.10;;;25.20;88.90;;;;;;5045672;28;20021;-76
2023/08/09 11:02:16;;;;;;;1.00;0.90;;;25.40;89.30;;;;;;5063778;28;20029;-76
2023/08/09 11:04:43;;;;;;;0.00;0.00;;;25.90;85.60;;;;;;5062731;28;20021;-76
2023/08/09 11:07:19;;;;;;;0.10;0.10;;;23.80;82.60;;;;;;5062808;28;20032;-79
2023/08/09 11:09:46;;;;;;;0.10;0.10;;;26.20;80.60;;;;;;5063880;28;20554;-77
2023/08/09 11:12:14;;;;;;;0.10;0.10;;;25.90;80.10;;;;;;5045312;28;20020;-78
2023/08/09 11:14:58;;;;;;;0.38;0.25;;;25.60;79.70;;;;;;5062768;28;20088;-79
2023/08/09 11:17:24;;;;;;;0.10;0.10;;;24.70;77.70;;;;;;5062035;28;20532;-76
2023/08/09 11:19:50;;;;;;;0.10;0.10;;;25.80;81.00;;;;;;5062800;28;20028;-75
2023/08/09 11:22:16;;;;;;;0.00;0.00;;;25.60;80.50;;;;;;5063776;28;20033;-76
2023/08/09 11:24:42;;;;;;;0.10;0.10;;;25.40;81.80;;;;;;5062632;28;20021;-75
2023/08/09 11:27:12;;;;;;;0.10;0.10;;;25.30;82.90;;;;;;5062888;28;20079;-80
2023/08/09 11:29:38;;;;;;;0.10;0.10;;;24.90;82.90;;;;;;5061900;28;20035;-76
2023/08/09 11:32:04;;;;;;;0.10;0.10;;;25.00;83.10;;;;;;5062618;28;20609;-76
2023/08/09 11:34:30;;;;;;;0.10;0.10;;;23.40;83.40;;;;;;5044375;28;20031;-76
2023/08/09 11:36:56;;;;;;;0.10;0.10;;;24.80;87.00;;;;;;5044893;28;20196;-77
2023/08/09 11:39:25;;;;;;;0.10;0.10;;;24.70;89.00;;;;;;5069114;28;20089;-76
2023/08/09 11:41:53;;;;;;;0.10;0.10;;;24.70;88.40;;;;;;5064483;28;20498;-76
2023/08/09 11:44:31;;;;;;;0.10;0.10;;;24.70;87.90;;;;;;5062890;28;20023;-80
2023/08/09 11:47:01;;;;;;;0.10;0.10;;;24.40;89.00;;;;;;5044147;28;20593;-78
2023/08/09 11:49:32;;;;;;;0.10;0.10;;;23.20;87.90;;;;;;5063557;28;20016;-78
2023/08/09 11:52:00;;;;;;;0.10;0.10;;;25.10;90.00;;;;;;5044593;28;20581;-78
2023/08/09 11:54:28;;;;;;;0.10;0.10;;;25.40;88.80;;;;;;5063069;28;20102;-77
2023/08/09 11:56:54;;;;;;;0.20;0.20;;;25.00;89.60;;;;;;5063537;28;20031;-78
2023/08/09 11:59:22;;;;;;;0.20;0.20;;;25.10;88.00;;;;;;5061645;28;20009;-77
2023/08/09 12:01:55;;;;;;;0.10;0.10;;;25.40;88.30;;;;;;5062496;28;20037;-77
2023/08/09 12:04:26;;;;;;;0.03;0.03;;;25.70;89.40;;;;;;5045180;28;20040;-76
2023/08/09 12:06:54;;;;;;;0.10;0.10;;;26.10;86.60;;;;;;5062357;28;20610;-76
2023/08/09 12:09:40;;;;;;;0.10;0.10;;;26.40;86.40;;;;;;5062676;28;20017;-78
2023/08/09 12:12:18;;;;;;;0.00;0.00;;;27.30;84.80;;;;;;5044344;28;20317;-77
2023/08/09 12:14:46;;;;;;;0.00;0.00;;;27.40;81.80;;;;;;5066141;28;20027;-81
2023/08/09 12:17:23;;;;;;;0.00;0.00;;;27.40;83.60;;;;;;5063080;28;20819;-77
2023/08/09 12:19:51;;;;;;;0.00;0.00;;;28.60;82.40;;;;;;5062445;28;20623;-78
2023/08/09 12:22:18;;;;;;;0.10;0.10;;;28.30;79.80;;;;;;5043428;28;20040;-77
2023/08/09 12:24:44;;;;;;;0.20;0.20;;;28.30;78.00;;;;;;5062079;28;20023;-78
2023/08/09 12:27:10;;;;;;;0.10;0.10;;;28.70;77.80;;;;;;5044602;28;20017;-78
2023/08/09 12:29:36;;;;;;;0.10;0.10;;;28.90;78.50;;;;;;5063196;28;20073;-77
2023/08/09 12:32:03;;;;;;;0.15;0.15;;;29.20;75.80;;;;;;5062193;28;20024;-76
2023/08/09 12:34:31;;;;;;;0.45;0.45;;;28.90;75.30;;;;;;5061345;28;20107;-79
2023/08/09 12:36:58;;;;;;;0.10;0.10;;;29.20;76.70;;;;;;5065867;28;20016;-79
2023/08/09 12:39:28;;;;;;;0.03;0.03;;;29.30;76.40;;;;;;5070437;28;20032;-77
2023/08/09 12:41:54;;;;;;;0.05;0.05;;;29.70;73.90;;;;;;5067736;28;20050;-79
2023/08/09 12:44:19;;;;;;;0.00;0.00;;;30.20;72.40;;;;;;5049915;28;20025;-81
2023/08/09 12:46:45;;;;;;;0.00;0.00;;;29.80;69.70;;;;;;5063161;28;20017;-80
2023/08/09 12:49:11;;;;;;;0.20;0.20;;;31.30;69.70;;;;;;5063519;28;20036;-79
2023/08/09 12:51:38;;;;;;;0.10;0.10;;;32.50;71.30;;;;;;5064509;28;20027;-77
2023/08/09 12:54:04;;;;;;;0.10;0.10;;;32.90;67.40;;;;;;5045668;28;20434;-76